Time;durP1;ratioP1;P1;durP2;ratioP2;P2;SDS_P1;SDS_P2;PMS_P1;PMS_P2;Temp;Humidity;BMP_temperature;BMP_pressure;BME280_temperature;BME280_humidity;BME280_pressure;Samples;Min_cycle;Max_cycle;Signal;HPM_P1;HPM_P2
2023/05/19 00:01:55;;;;;;;5.78;3.85;;;12.60;99.90;;;;;;5028510;28;20279;-83
2023/05/19 00:04:21;;;;;;;7.78;3.83;;;12.70;99.90;;;;;;5028787;28;20070;-83
2023/05/19 00:06:50;;;;;;;7.25;3.30;;;12.70;99.90;;;;;;5027562;28;20484;-84
2023/05/19 00:09:16;;;;;;;6.90;3.45;;;12.70;99.90;;;;;;5028649;28;20033;-84
2023/05/19 00:11:42;;;;;;;6.57;3.75;;;12.70;99.90;;;;;;5028096;28;20063;-83
2023/05/19 00:14:09;;;;;;;12.35;4.68;;;12.70;99.90;;;;;;5027912;28;20022;-84
2023/05/19 00:16:36;;;;;;;6.53;3.28;;;12.70;99.90;;;;;;5027980;28;20029;-83
2023/05/19 00:19:04;;;;;;;9.32;4.00;;;13.30;99.90;;;;;;5028569;28;20024;-83
2023/05/19 00:21:30;;;;;;;8.88;3.70;;;12.70;99.90;;;;;;5028239;28;20108;-83
2023/05/19 00:23:56;;;;;;;6.65;3.97;;;12.60;99.90;;;;;;5028371;28;20109;-83
2023/05/19 00:26:23;;;;;;;7.22;4.07;;;12.50;99.90;;;;;;5027973;28;20029;-83
2023/05/19 00:28:49;;;;;;;11.65;4.40;;;12.20;99.90;;;;;;5031512;28;20025;-83
2023/05/19 00:31:14;;;;;;;9.95;4.18;;;12.20;99.90;;;;;;5031583;28;20038;-83
2023/05/19 00:33:40;;;;;;;8.80;3.83;;;12.40;99.90;;;;;;5030674;28;20021;-83
2023/05/19 00:36:06;;;;;;;11.57;4.20;;;12.30;99.90;;;;;;5031800;28;20548;-83
2023/05/19 00:38:34;;;;;;;10.70;3.92;;;12.20;99.90;;;;;;5031576;28;20017;-83
2023/05/19 00:41:01;;;;;;;10.65;4.75;;;12.10;99.90;;;;;;5030953;28;20037;-83
2023/05/19 00:43:28;;;;;;;8.52;3.97;;;12.10;99.90;;;;;;5031711;28;20021;-83
2023/05/19 00:45:54;;;;;;;5.50;3.92;;;12.10;99.90;;;;;;5031055;28;20068;-83
2023/05/19 00:48:20;;;;;;;10.57;4.55;;;12.20;99.90;;;;;;5030610;28;20021;-83
2023/05/19 00:50:46;;;;;;;7.78;4.07;;;12.10;99.90;;;;;;5031211;28;20037;-83
2023/05/19 00:53:15;;;;;;;8.55;4.00;;;12.00;99.90;;;;;;5031475;28;20055;-83
2023/05/19 00:55:41;;;;;;;9.07;3.83;;;11.90;99.90;;;;;;5030322;28;20040;-83
2023/05/19 00:58:09;;;;;;;7.93;4.03;;;11.80;99.90;;;;;;5031352;28;20117;-83
2023/05/19 01:00:35;;;;;;;9.50;3.95;;;11.80;99.90;;;;;;5030900;28;20500;-84
2023/05/19 01:03:01;;;;;;;4.72;3.45;;;11.90;99.90;;;;;;5030235;28;20030;-84
2023/05/19 01:05:27;;;;;;;8.52;4.20;;;11.90;99.90;;;;;;5031289;28;20018;-84
2023/05/19 01:07:55;;;;;;;11.88;4.13;;;12.00;99.90;;;;;;5031020;28;20029;-84
2023/05/19 01:10:21;;;;;;;9.48;4.32;;;12.00;99.90;;;;;;5030464;28;20077;-84
2023/05/19 01:12:47;;;;;;;10.10;4.47;;;12.10;99.90;;;;;;5030599;28;20108;-84
2023/05/19 01:15:14;;;;;;;7.22;4.15;;;12.10;99.90;;;;;;5030753;28;20029;-84
2023/05/19 01:17:57;;;;;;;7.97;3.92;;;12.10;99.90;;;;;;5029977;28;20378;-84
2023/05/19 01:20:35;;;;;;;8.57;4.57;;;12.10;99.90;;;;;;5031180;28;20078;-84
2023/05/19 01:23:19;;;;;;;5.47;4.18;;;12.10;99.90;;;;;;5030536;28;20113;-84
2023/05/19 01:26:17;;;;;;;7.72;4.63;;;12.10;99.90;;;;;;5030352;28;20022;-84
2023/05/19 01:29:01;;;;;;;7.20;4.15;;;12.10;99.90;;;;;;5016744;28;20040;-84
2023/05/19 01:31:27;;;;;;;12.23;4.25;;;12.00;99.90;;;;;;5030119;28;20033;-84
2023/05/19 01:33:54;;;;;;;7.20;4.07;;;12.10;99.90;;;;;;5030008;28;20052;-85
2023/05/19 01:36:21;;;;;;;6.35;3.30;;;12.10;99.90;;;;;;5030663;28;20030;-85
2023/05/19 01:38:50;;;;;;;6.57;3.83;;;12.00;99.90;;;;;;5029504;28;20045;-85
2023/05/19 01:41:17;;;;;;;7.88;3.50;;;12.10;99.90;;;;;;5030830;28;20408;-84
2023/05/19 01:43:44;;;;;;;10.20;3.90;;;12.10;99.90;;;;;;5029922;28;20105;-84
2023/05/19 01:46:10;;;;;;;9.75;3.65;;;12.10;99.90;;;;;;5030851;28;20065;-84
2023/05/19 01:48:37;;;;;;;11.75;4.35;;;12.10;99.90;;;;;;5030159;28;20022;-84
2023/05/19 01:51:02;;;;;;;9.52;4.40;;;12.10;99.90;;;;;;5029769;28;20547;-84
2023/05/19 01:53:29;;;;;;;10.50;3.58;;;12.00;99.90;;;;;;5030763;28;20045;-84
2023/05/19 01:55:56;;;;;;;9.23;3.88;;;12.00;99.90;;;;;;5030138;28;20564;-84
2023/05/19 01:58:47;;;;;;;9.25;4.28;;;11.90;99.90;;;;;;5029869;28;20032;-84
2023/05/19 02:01:20;;;;;;;8.52;3.95;;;11.70;99.90;;;;;;5030358;28;20113;-84
2023/05/19 02:04:14;;;;;;;12.60;4.38;;;11.60;99.90;;;;;;5030311;28;20025;-84
2023/05/19 02:06:47;;;;;;;8.60;4.00;;;11.50;99.90;;;;;;5029580;28;20044;-84
2023/05/19 02:09:15;;;;;;;8.63;4.28;;;11.60;99.90;;;;;;5030213;28;20029;-84
2023/05/19 02:11:53;;;;;;;7.50;4.25;;;11.60;99.90;;;;;;5029731;28;20170;-84
2023/05/19 02:14:48;;;;;;;8.80;3.65;;;11.60;99.90;;;;;;5030315;28;20018;-84
2023/05/19 02:17:19;;;;;;;14.07;4.22;;;11.50;99.90;;;;;;4993167;28;20574;-83
2023/05/19 02:19:45;;;;;;;9.77;4.10;;;11.60;99.90;;;;;;5029126;28;20386;-82
2023/05/19 02:22:10;;;;;;;7.00;4.03;;;11.60;99.90;;;;;;5030072;28;20025;-83
2023/05/19 02:24:36;;;;;;;7.75;4.38;;;11.70;99.90;;;;;;5029848;28;20021;-83
2023/05/19 02:27:02;;;;;;;10.05;3.50;;;11.70;99.90;;;;;;5029213;28;20092;-83
2023/05/19 02:29:27;;;;;;;7.00;4.05;;;11.70;99.90;;;;;;5029519;28;20052;-82
2023/05/19 02:31:53;;;;;;;8.07;3.67;;;11.70;99.90;;;;;;5029578;28;20174;-83
2023/05/19 02:34:19;;;;;;;5.70;3.88;;;11.80;99.90;;;;;;5029145;28;20032;-83
2023/05/19 02:36:44;;;;;;;8.07;4.00;;;11.70;99.90;;;;;;5029432;28;20025;-83
2023/05/19 02:39:10;;;;;;;7.50;4.15;;;11.70;99.90;;;;;;5029686;28;20029;-83
2023/05/19 02:41:36;;;;;;;6.80;3.35;;;11.70;99.90;;;;;;5028695;28;20473;-83
2023/05/19 02:44:02;;;;;;;6.63;4.20;;;11.70;99.90;;;;;;5029722;28;20045;-83
2023/05/19 02:46:28;;;;;;;7.95;4.32;;;11.70;99.90;;;;;;5029356;28;20503;-83
2023/05/19 02:48:53;;;;;;;10.80;4.60;;;11.70;99.90;;;;;;5028424;28;20041;-83
2023/05/19 02:51:19;;;;;;;10.02;4.82;;;11.70;99.90;;;;;;5028350;28;20511;-83
2023/05/19 02:53:45;;;;;;;9.88;3.72;;;11.70;99.90;;;;;;5029501;28;20036;-83
2023/05/19 02:56:10;;;;;;;6.80;4.25;;;11.70;99.90;;;;;;5028975;28;20041;-83
2023/05/19 02:58:36;;;;;;;9.40;4.22;;;11.60;99.90;;;;;;5028974;28;20051;-83
2023/05/19 03:01:01;;;;;;;8.35;4.38;;;11.50;99.90;;;;;;5029306;28;20036;-83
2023/05/19 03:03:27;;;;;;;6.47;4.10;;;11.50;99.90;;;;;;5029000;28;20053;-83
2023/05/19 03:05:53;;;;;;;12.10;4.55;;;11.40;99.90;;;;;;5029019;28;20052;-83
2023/05/19 03:08:19;;;;;;;9.05;4.72;;;11.50;99.90;;;;;;5028914;28;20088;-83
2023/05/19 03:10:45;;;;;;;13.02;4.75;;;11.50;99.90;;;;;;5029221;28;20029;-83
2023/05/19 03:13:11;;;;;;;7.18;4.28;;;11.50;99.90;;;;;;5029454;28;20037;-83
2023/05/19 03:15:37;;;;;;;15.27;4.40;;;11.30;99.90;;;;;;5028377;28;20033;-83
2023/05/19 03:18:03;;;;;;;12.38;4.82;;;11.20;99.90;;;;;;5029203;28;20108;-84
2023/05/19 03:20:29;;;;;;;6.60;4.53;;;10.90;99.90;;;;;;5029094;28;20022;-83
2023/05/19 03:22:56;;;;;;;10.15;4.80;;;10.70;99.90;;;;;;5028157;28;20053;-83
2023/05/19 03:25:21;;;;;;;6.05;4.25;;;10.90;99.90;;;;;;5029334;28;20025;-83
2023/05/19 03:27:47;;;;;;;6.85;4.45;;;11.00;99.90;;;;;;5029106;28;20549;-83
2023/05/19 03:30:13;;;;;;;9.05;4.32;;;11.10;99.90;;;;;;5028413;28;20029;-83
2023/05/19 03:32:39;;;;;;;9.57;4.32;;;11.20;99.90;;;;;;5028748;28;20033;-83
2023/05/19 03:35:04;;;;;;;12.10;5.20;;;11.30;99.90;;;;;;5028884;28;20029;-83
2023/05/19 03:37:31;;;;;;;9.15;4.72;;;11.30;99.90;;;;;;5028283;28;20060;-85
2023/05/19 03:39:57;;;;;;;10.70;5.05;;;11.80;99.90;;;;;;5029093;28;20025;-84
2023/05/19 03:42:23;;;;;;;11.82;4.32;;;10.90;99.90;;;;;;5029173;28;20033;-82
2023/05/19 03:44:48;;;;;;;9.82;4.55;;;11.00;99.90;;;;;;5027678;28;20134;-82
2023/05/19 03:47:14;;;;;;;11.80;4.90;;;10.60;99.90;;;;;;5029034;28;20049;-83
2023/05/19 03:49:40;;;;;;;9.80;4.88;;;10.60;99.90;;;;;;5028694;28;20059;-85
2023/05/19 03:52:05;;;;;;;9.07;4.72;;;10.80;99.90;;;;;;5028047;28;20090;-84
2023/05/19 03:54:31;;;;;;;8.05;4.53;;;10.60;99.90;;;;;;5028907;28;20017;-84
2023/05/19 03:56:57;;;;;;;12.13;4.80;;;10.50;99.90;;;;;;5028651;28;20061;-84
2023/05/19 03:59:23;;;;;;;12.85;4.95;;;10.60;99.90;;;;;;5027668;28;20025;-84
2023/05/19 04:01:49;;;;;;;6.57;4.13;;;10.70;99.90;;;;;;5031213;28;20036;-83
2023/05/19 04:04:15;;;;;;;8.02;4.60;;;10.80;99.90;;;;;;5120660;27;20039;-83
2023/05/19 04:06:40;;;;;;;6.70;4.28;;;10.90;99.90;;;;;;5135930;27;20023;-83
2023/05/19 04:09:13;;;;;;;10.27;4.38;;;11.00;99.90;;;;;;5136603;27;20055;-82
2023/05/19 04:11:39;;;;;;;7.93;4.65;;;11.10;99.90;;;;;;5135632;27;20035;-82
2023/05/19 04:14:06;;;;;;;7.60;4.40;;;11.10;99.90;;;;;;5136636;27;20016;-83
2023/05/19 04:16:32;;;;;;;10.13;5.13;;;10.80;99.90;;;;;;5136425;27;20034;-82
2023/05/19 04:18:57;;;;;;;9.23;4.88;;;10.70;99.90;;;;;;5135712;27;20064;-83
2023/05/19 04:21:23;;;;;;;11.38;4.43;;;10.50;99.90;;;;;;5136723;27;20379;-83
2023/05/19 04:23:48;;;;;;;14.65;4.53;;;10.40;99.90;;;;;;5136175;27;20027;-82
2023/05/19 04:26:14;;;;;;;16.45;5.05;;;10.40;99.90;;;;;;5135737;27;20050;-83
2023/05/19 04:28:43;;;;;;;15.55;5.97;;;10.40;99.90;;;;;;5136153;27;20019;-83
2023/05/19 04:31:09;;;;;;;10.25;5.55;;;10.40;99.90;;;;;;5136115;27;20453;-83
2023/05/19 04:33:36;;;;;;;9.93;5.40;;;10.30;99.90;;;;;;5135447;27;20023;-84
2023/05/19 04:36:04;;;;;;;7.82;4.75;;;10.30;99.90;;;;;;5101845;27;20098;-85
2023/05/19 04:38:30;;;;;;;13.18;5.97;;;10.30;99.90;;;;;;5078082;27;20044;-85
2023/05/19 04:40:59;;;;;;;11.40;5.53;;;10.20;99.90;;;;;;5030220;28;20476;-84
2023/05/19 04:43:26;;;;;;;14.45;5.28;;;10.50;99.90;;;;;;5028038;28;20029;-85
2023/05/19 04:45:51;;;;;;;7.93;5.47;;;10.50;99.90;;;;;;5030687;28;20037;-85
2023/05/19 04:48:17;;;;;;;11.18;5.32;;;10.60;99.90;;;;;;5029698;28;20034;-85
2023/05/19 04:50:43;;;;;;;10.38;4.93;;;10.70;99.90;;;;;;5029969;28;20091;-84
2023/05/19 04:53:10;;;;;;;10.57;4.95;;;10.90;99.90;;;;;;5030574;28;20025;-85
2023/05/19 04:55:37;;;;;;;6.30;5.05;;;10.90;99.90;;;;;;5029171;28;20040;-85
2023/05/19 04:58:03;;;;;;;13.18;5.25;;;11.00;99.90;;;;;;5086669;27;20036;-85
2023/05/19 05:00:28;;;;;;;7.70;5.13;;;11.00;99.90;;;;;;5081926;27;20020;-84
2023/05/19 05:02:56;;;;;;;11.15;4.93;;;11.00;99.90;;;;;;5086635;27;20026;-85
2023/05/19 05:05:21;;;;;;;9.63;5.28;;;10.90;99.90;;;;;;5075523;27;20465;-85
2023/05/19 05:07:48;;;;;;;11.57;6.07;;;10.90;99.90;;;;;;5082868;27;20027;-85
2023/05/19 05:10:14;;;;;;;11.18;5.88;;;10.80;99.90;;;;;;5086796;27;20477;-85
2023/05/19 05:12:39;;;;;;;10.10;5.97;;;10.70;99.90;;;;;;5063710;27;20033;-84
2023/05/19 05:15:06;;;;;;;13.15;6.68;;;10.80;99.90;;;;;;5078533;27;20051;-84
2023/05/19 05:17:34;;;;;;;12.63;6.22;;;10.80;99.90;;;;;;5077218;27;20496;-84
2023/05/19 05:20:00;;;;;;;12.02;6.25;;;10.80;99.90;;;;;;5076822;27;20065;-84
2023/05/19 05:22:26;;;;;;;11.38;6.00;;;10.80;99.90;;;;;;5084101;27;20031;-84
2023/05/19 05:24:52;;;;;;;10.52;5.78;;;10.80;99.90;;;;;;5083889;27;20029;-84
2023/05/19 05:27:17;;;;;;;9.27;6.20;;;10.80;99.90;;;;;;5135110;27;20029;-85
2023/05/19 05:29:43;;;;;;;11.05;6.35;;;10.90;99.90;;;;;;5134079;27;20019;-84
2023/05/19 05:32:09;;;;;;;11.65;6.80;;;10.80;99.90;;;;;;5135092;27;20031;-85
2023/05/19 05:34:36;;;;;;;21.42;6.95;;;11.00;99.90;;;;;;5134568;27;20386;-84
2023/05/19 05:37:02;;;;;;;20.58;6.45;;;10.90;99.90;;;;;;5134654;27;20061;-84
2023/05/19 05:39:28;;;;;;;9.65;6.40;;;10.80;99.90;;;;;;5134973;27;20019;-84
2023/05/19 05:41:53;;;;;;;15.65;7.20;;;10.80;99.90;;;;;;5134406;27;20023;-84
2023/05/19 05:44:19;;;;;;;11.77;5.97;;;11.00;99.90;;;;;;5133918;27;20498;-84
2023/05/19 05:46:44;;;;;;;12.65;6.28;;;11.00;99.90;;;;;;5101441;27;20061;-83
2023/05/19 05:49:12;;;;;;;12.20;6.30;;;11.10;99.90;;;;;;5118834;27;20023;-83
2023/05/19 05:51:38;;;;;;;11.80;7.43;;;11.30;99.90;;;;;;5133203;27;20035;-83
2023/05/19 05:54:05;;;;;;;17.08;7.15;;;11.30;99.90;;;;;;5134245;27;20034;-84
2023/05/19 05:56:32;;;;;;;10.35;6.53;;;11.40;99.90;;;;;;5134412;27;20103;-83
2023/05/19 05:58:58;;;;;;;12.00;6.72;;;11.60;99.90;;;;;;5133507;27;20023;-83
2023/05/19 06:01:24;;;;;;;18.70;7.00;;;11.30;99.90;;;;;;5134360;27;20038;-83
2023/05/19 06:03:50;;;;;;;15.88;6.68;;;11.40;99.90;;;;;;5134097;27;20144;-83
2023/05/19 06:06:15;;;;;;;14.88;7.13;;;11.40;99.90;;;;;;5133833;27;20110;-83
2023/05/19 06:08:41;;;;;;;15.18;7.20;;;11.40;99.90;;;;;;5133894;27;20422;-83
2023/05/19 06:11:07;;;;;;;10.38;6.15;;;11.50;99.90;;;;;;5133184;27;20106;-84
2023/05/19 06:13:37;;;;;;;12.70;6.90;;;11.70;99.90;;;;;;5134220;27;20096;-84
2023/05/19 06:16:03;;;;;;;11.85;7.22;;;11.60;99.90;;;;;;5134329;27;20065;-83
2023/05/19 06:18:29;;;;;;;16.15;8.00;;;11.70;99.90;;;;;;5132689;27;20110;-84
2023/05/19 06:20:55;;;;;;;10.38;6.50;;;11.80;99.90;;;;;;5133871;27;20106;-84
2023/05/19 06:23:20;;;;;;;14.77;7.32;;;11.80;99.90;;;;;;5133958;27;20019;-84
2023/05/19 06:25:46;;;;;;;11.68;7.32;;;11.80;99.90;;;;;;5131709;27;20020;-84
2023/05/19 06:28:12;;;;;;;11.73;6.78;;;11.70;99.90;;;;;;5133950;27;20460;-83
2023/05/19 06:30:37;;;;;;;12.40;6.72;;;11.70;99.90;;;;;;5087574;27;20036;-84
2023/05/19 06:33:03;;;;;;;16.40;7.40;;;11.80;99.90;;;;;;5028751;28;20057;-84
2023/05/19 06:35:29;;;;;;;12.52;7.55;;;11.80;99.90;;;;;;5029880;28;20465;-84
2023/05/19 06:37:55;;;;;;;12.18;7.22;;;11.80;99.90;;;;;;5028453;28;20029;-85
2023/05/19 06:40:21;;;;;;;14.50;7.90;;;11.80;99.90;;;;;;5027219;28;20063;-84
2023/05/19 06:42:47;;;;;;;12.82;7.65;;;11.80;99.90;;;;;;5042289;27;20033;-84
2023/05/19 06:45:13;;;;;;;11.32;7.88;;;12.10;99.90;;;;;;5059848;27;20581;-85
2023/05/19 06:47:41;;;;;;;10.98;6.78;;;11.90;99.90;;;;;;5081997;27;20050;-85
2023/05/19 06:50:08;;;;;;;11.18;6.97;;;12.00;99.90;;;;;;5084306;27;20117;-88
2023/05/19 06:52:34;;;;;;;13.55;6.75;;;12.10;99.90;;;;;;5132759;27;20031;-85
2023/05/19 06:54:59;;;;;;;14.73;7.35;;;12.00;99.90;;;;;;5132508;27;20031;-86
2023/05/19 06:57:25;;;;;;;17.70;7.28;;;12.10;99.90;;;;;;5102887;27;20025;-85
2023/05/19 06:59:50;;;;;;;14.93;6.93;;;12.20;99.90;;;;;;5076654;27;20079;-87
2023/05/19 07:02:16;;;;;;;10.57;7.35;;;12.10;99.90;;;;;;5029119;28;20543;-85
2023/05/19 07:04:41;;;;;;;16.10;7.85;;;12.10;99.90;;;;;;5029177;28;20032;-86
2023/05/19 07:07:07;;;;;;;11.50;7.15;;;12.10;99.90;;;;;;5029481;28;20104;-85
2023/05/19 07:09:33;;;;;;;12.38;7.20;;;12.10;99.90;;;;;;5028025;28;20078;-86
2023/05/19 07:12:00;;;;;;;10.13;8.15;;;12.20;99.90;;;;;;5088010;27;20083;-85
2023/05/19 07:14:25;;;;;;;15.95;7.65;;;12.40;99.90;;;;;;5058647;27;20029;-85
2023/05/19 07:16:51;;;;;;;14.27;6.75;;;12.40;99.90;;;;;;5088650;27;20906;-88
2023/05/19 07:19:18;;;;;;;13.23;7.00;;;12.50;99.90;;;;;;5078624;27;20066;-86
2023/05/19 07:21:44;;;;;;;14.75;7.47;;;12.50;99.90;;;;;;5101078;28;20072;-87
2023/05/19 07:24:10;;;;;;;14.65;7.15;;;13.30;99.90;;;;;;5133144;27;20141;-83
2023/05/19 07:26:36;;;;;;;12.30;6.90;;;12.60;99.90;;;;;;5132867;28;20487;-85
2023/05/19 07:29:01;;;;;;;10.35;6.53;;;12.60;99.90;;;;;;5132184;28;20539;-86
2023/05/19 07:31:27;;;;;;;16.02;7.20;;;12.60;99.90;;;;;;5133085;28;20046;-86
2023/05/19 07:33:52;;;;;;;13.05;6.47;;;12.60;99.90;;;;;;5132905;28;20019;-86
2023/05/19 07:36:18;;;;;;;9.25;5.97;;;12.80;99.90;;;;;;5132564;27;20076;-85
2023/05/19 07:38:45;;;;;;;12.30;6.88;;;12.80;99.90;;;;;;5136672;27;20127;-84
2023/05/19 07:41:11;;;;;;;13.43;6.85;;;12.80;99.90;;;;;;5137217;27;20103;-87
2023/05/19 07:43:36;;;;;;;10.40;5.95;;;12.80;99.90;;;;;;5136385;27;20055;-87
2023/05/19 07:46:02;;;;;;;11.27;5.65;;;12.90;99.90;;;;;;5137048;27;20027;-86
2023/05/19 07:48:28;;;;;;;12.43;6.28;;;13.00;99.90;;;;;;5137217;27;20031;-90
2023/05/19 07:50:54;;;;;;;9.77;5.57;;;13.30;99.90;;;;;;5078448;27;20430;-84
2023/05/19 07:53:19;;;;;;;8.60;4.40;;;13.10;99.90;;;;;;5032289;28;20029;-83
2023/05/19 07:55:45;;;;;;;8.68;4.30;;;13.10;99.90;;;;;;5031685;28;20423;-84
2023/05/19 07:58:11;;;;;;;11.85;5.57;;;13.20;99.90;;;;;;5031403;28;20030;-85
2023/05/19 08:00:36;;;;;;;8.73;5.63;;;13.20;99.90;;;;;;5031865;28;20105;-85
2023/05/19 08:03:02;;;;;;;15.10;6.55;;;13.20;99.90;;;;;;5032509;28;20053;-84
2023/05/19 08:05:28;;;;;;;8.70;5.57;;;13.20;99.90;;;;;;5031481;28;20048;-85
2023/05/19 08:07:55;;;;;;;15.18;5.00;;;13.30;99.90;;;;;;5031652;28;20457;-84
2023/05/19 08:10:20;;;;;;;9.32;4.40;;;13.40;99.90;;;;;;5032005;28;20079;-85
2023/05/19 08:12:46;;;;;;;12.85;4.38;;;13.40;99.90;;;;;;5031006;28;20033;-86
2023/05/19 08:15:12;;;;;;;8.40;4.00;;;13.50;99.90;;;;;;5032254;28;20022;-85
2023/05/19 08:17:37;;;;;;;13.88;4.60;;;13.60;99.90;;;;;;5030955;28;20491;-83
2023/05/19 08:20:06;;;;;;;8.38;5.05;;;13.60;99.90;;;;;;5032003;28;20082;-83
2023/05/19 08:22:32;;;;;;;11.02;4.45;;;13.70;99.90;;;;;;5031643;28;20029;-84
2023/05/19 08:24:57;;;;;;;6.40;4.68;;;13.70;99.90;;;;;;5031692;28;20022;-84
2023/05/19 08:27:23;;;;;;;11.15;4.32;;;13.70;99.90;;;;;;5118301;27;20054;-84
2023/05/19 08:29:48;;;;;;;12.98;4.38;;;13.80;99.90;;;;;;5063846;27;20434;-84
2023/05/19 08:32:14;;;;;;;6.72;3.45;;;13.90;99.90;;;;;;5065363;27;20037;-84
2023/05/19 08:34:40;;;;;;;4.38;3.65;;;13.90;99.90;;;;;;5076717;27;20019;-84
2023/05/19 08:37:06;;;;;;;10.68;3.70;;;13.90;99.90;;;;;;5101930;27;20038;-85
2023/05/19 08:39:33;;;;;;;11.23;4.13;;;13.90;99.90;;;;;;5134892;27;20466;-84
2023/05/19 08:41:59;;;;;;;7.82;4.05;;;13.90;99.90;;;;;;5136000;27;20031;-83
2023/05/19 08:44:25;;;;;;;8.45;4.25;;;13.90;99.90;;;;;;5135586;27;20486;-82
2023/05/19 08:46:55;;;;;;;6.28;4.18;;;14.00;99.90;;;;;;5135035;27;20455;-82
2023/05/19 08:49:30;;;;;;;12.82;2.83;;;14.00;99.90;;;;;;5135853;27;20578;-83
2023/05/19 08:52:14;;;;;;;8.85;2.75;;;14.10;99.90;;;;;;5135529;27;20035;-84
2023/05/19 08:54:53;;;;;;;9.25;3.33;;;14.20;99.90;;;;;;5068469;27;20480;-83
2023/05/19 08:57:20;;;;;;;10.57;3.58;;;14.30;99.90;;;;;;5031433;28;20532;-84
2023/05/19 08:59:47;;;;;;;8.45;2.70;;;14.30;99.90;;;;;;5030633;28;20029;-86
2023/05/19 09:02:13;;;;;;;3.53;2.85;;;14.40;99.90;;;;;;5031616;28;20030;-87
2023/05/19 09:04:40;;;;;;;9.00;3.97;;;14.40;99.90;;;;;;5031318;28;20033;-83
2023/05/19 09:07:06;;;;;;;8.13;2.80;;;14.40;99.90;;;;;;5029543;28;20086;-84
2023/05/19 09:09:31;;;;;;;8.63;2.78;;;14.40;99.90;;;;;;5031438;28;20025;-84
2023/05/19 09:11:57;;;;;;;11.75;3.13;;;14.50;99.90;;;;;;5031006;28;20112;-84
2023/05/19 09:14:23;;;;;;;8.98;3.25;;;14.50;99.90;;;;;;5030175;28;20426;-84
2023/05/19 09:16:51;;;;;;;10.20;3.47;;;14.50;99.90;;;;;;5030551;28;20030;-82
2023/05/19 09:19:17;;;;;;;6.35;2.85;;;14.50;99.90;;;;;;5031079;28;20033;-83
2023/05/19 09:21:44;;;;;;;8.30;3.05;;;14.60;99.90;;;;;;5029825;28;20085;-86
2023/05/19 09:24:09;;;;;;;11.82;2.90;;;14.60;99.90;;;;;;5031071;28;20495;-83
2023/05/19 09:26:39;;;;;;;6.22;2.63;;;14.60;99.90;;;;;;5030718;28;20025;-84
2023/05/19 09:29:13;;;;;;;10.13;2.78;;;14.80;99.90;;;;;;5029966;28;20025;-87
2023/05/19 09:31:39;;;;;;;19.65;3.03;;;15.10;99.90;;;;;;5083410;27;20045;-88
2023/05/19 09:34:11;;;;;;;10.85;2.97;;;15.10;99.90;;;;;;5083593;27;20061;-86
2023/05/19 09:36:39;;;;;;;6.50;2.50;;;15.10;99.90;;;;;;5030413;28;20461;-89
2023/05/19 09:39:13;;;;;;;9.30;2.53;;;15.20;99.90;;;;;;5032426;28;20038;-89
2023/05/19 09:41:38;;;;;;;11.38;2.95;;;15.30;99.90;;;;;;5031075;28;20048;-87
2023/05/19 09:44:06;;;;;;;6.32;2.58;;;15.30;99.90;;;;;;5029862;28;20477;-85
2023/05/19 09:46:33;;;;;;;8.63;2.47;;;15.40;99.90;;;;;;5030612;28;20045;-85
2023/05/19 09:48:59;;;;;;;6.43;2.58;;;15.30;99.90;;;;;;5030455;28;20053;-86
2023/05/19 09:51:25;;;;;;;5.68;2.38;;;15.30;99.90;;;;;;5029812;28;20041;-86
2023/05/19 09:53:52;;;;;;;6.55;1.88;;;15.30;99.90;;;;;;5030161;28;20430;-89
2023/05/19 09:56:22;;;;;;;9.13;2.67;;;15.40;99.90;;;;;;5089298;27;20027;-86
2023/05/19 09:58:48;;;;;;;34.42;2.88;;;15.40;99.90;;;;;;5134287;27;20378;-87
2023/05/19 10:01:14;;;;;;;6.57;2.13;;;15.40;99.90;;;;;;5134028;27;20031;-85
2023/05/19 10:03:41;;;;;;;4.63;2.22;;;15.40;99.90;;;;;;5133403;27;20356;-86
2023/05/19 10:06:08;;;;;;;8.45;2.95;;;15.30;99.90;;;;;;5134402;27;20428;-87
2023/05/19 10:08:34;;;;;;;9.40;2.75;;;15.50;99.90;;;;;;5133487;27;20027;-86
2023/05/19 10:11:01;;;;;;;9.40;2.58;;;15.50;99.90;;;;;;5133501;27;20035;-86
2023/05/19 10:13:28;;;;;;;9.25;3.00;;;15.50;99.90;;;;;;5132059;27;20035;-86
2023/05/19 10:15:54;;;;;;;6.63;2.40;;;15.60;99.90;;;;;;5130358;27;20030;-87
2023/05/19 10:18:24;;;;;;;9.23;2.53;;;15.60;99.90;;;;;;5130029;27;20027;-87
2023/05/19 10:20:50;;;;;;;8.35;2.75;;;15.70;99.90;;;;;;5130855;27;20027;-86
2023/05/19 10:23:16;;;;;;;6.55;2.95;;;15.70;99.90;;;;;;5131070;27;20049;-86
2023/05/19 10:25:42;;;;;;;8.68;2.67;;;15.80;99.90;;;;;;5130193;27;20364;-87
2023/05/19 10:28:12;;;;;;;7.80;3.50;;;15.80;99.90;;;;;;5132420;27;20026;-87
2023/05/19 10:30:43;;;;;;;10.27;3.10;;;15.90;99.90;;;;;;5133701;27;20026;-87
2023/05/19 10:33:10;;;;;;;;;;;15.80;99.90;;;;;;5133762;27;20035;-87
2023/05/19 10:35:44;;;;;;;8.25;3.25;;;15.80;99.90;;;;;;5133594;27;19912;-87
2023/05/19 10:38:10;;;;;;;5.90;2.80;;;15.90;99.90;;;;;;5133956;27;20491;-86
2023/05/19 10:41:16;;;;;;;5.13;2.90;;;16.10;99.90;;;;;;5133247;27;20056;-86
2023/05/19 10:44:00;;;;;;;6.85;2.70;;;15.90;99.90;;;;;;5132147;27;20042;-87
2023/05/19 10:46:27;;;;;;;10.75;2.97;;;15.90;99.90;;;;;;5053588;27;20106;-87
2023/05/19 10:48:53;;;;;;;4.55;2.97;;;15.90;99.90;;;;;;5036997;28;20037;-89
2023/05/19 10:51:18;;;;;;;8.88;3.83;;;15.90;99.80;;;;;;5036676;28;20028;-88
2023/05/19 10:53:48;;;;;;;6.20;2.97;;;15.80;99.90;;;;;;5031266;28;20036;-90
2023/05/19 10:56:35;;;;;;;6.82;2.78;;;15.80;99.80;;;;;;5028893;28;20041;-87
2023/05/19 10:59:01;;;;;;;7.15;2.83;;;15.80;99.90;;;;;;5028009;28;20034;-87
2023/05/19 11:01:32;;;;;;;9.50;3.53;;;15.90;99.90;;;;;;5028277;28;20030;-86
2023/05/19 11:04:04;;;;;;;7.88;3.03;;;15.90;99.60;;;;;;5028944;28;20422;-86
2023/05/19 11:06:32;;;;;;;11.07;3.22;;;16.00;99.60;;;;;;5028567;28;20033;-87
2023/05/19 11:09:20;;;;;;;7.95;2.55;;;15.90;99.90;;;;;;5027854;28;20311;-86
2023/05/19 11:11:47;;;;;;;6.82;2.28;;;16.10;99.20;;;;;;5027679;28;20090;-86
2023/05/19 11:14:25;;;;;;;10.63;2.83;;;16.10;98.50;;;;;;5028592;28;20045;-86
2023/05/19 11:16:56;;;;;;;6.25;2.78;;;16.20;98.10;;;;;;5029725;28;20057;-90
2023/05/19 11:19:33;;;;;;;5.15;2.55;;;16.20;98.40;;;;;;5028778;28;20056;-89
2023/05/19 11:22:09;;;;;;;5.63;2.50;;;16.30;97.90;;;;;;5057953;28;20042;-88
2023/05/19 11:24:48;;;;;;;6.43;2.40;;;16.30;98.10;;;;;;5085257;28;20110;-88
2023/05/19 11:27:33;;;;;;;5.30;2.50;;;16.30;98.10;;;;;;5062529;28;20033;-89
2023/05/19 11:30:18;;;;;;;4.85;2.42;;;16.40;97.40;;;;;;5058630;28;20113;-90
2023/05/19 11:32:46;;;;;;;6.47;2.90;;;16.50;97.10;;;;;;5027359;28;20033;-89
2023/05/19 11:35:13;;;;;;;5.60;2.45;;;16.60;97.40;;;;;;5029939;28;20096;-91
2023/05/19 11:37:42;;;;;;;8.68;2.45;;;16.60;97.70;;;;;;5030359;28;20029;-92
2023/05/19 11:40:08;;;;;;;10.68;3.17;;;16.80;97.10;;;;;;5030501;28;20032;-91
2023/05/19 11:42:34;;;;;;;12.10;3.17;;;16.70;96.50;;;;;;5028008;28;20062;-91
2023/05/19 11:45:01;;;;;;;11.95;2.35;;;16.80;97.20;;;;;;5028803;28;20394;-89
2023/05/19 11:47:27;;;;;;;7.22;2.25;;;16.80;97.10;;;;;;5029630;28;20384;-89
2023/05/19 11:49:55;;;;;;;4.57;2.45;;;16.80;96.00;;;;;;5028578;28;20096;-89
2023/05/19 11:52:26;;;;;;;6.85;2.78;;;16.80;95.80;;;;;;5029407;28;20094;-89
2023/05/19 11:54:52;;;;;;;8.80;2.95;;;16.70;95.80;;;;;;5078628;28;20050;-86
2023/05/19 11:57:18;;;;;;;9.18;2.97;;;17.30;95.90;;;;;;5135674;28;20447;-87
2023/05/19 11:59:46;;;;;;;10.43;2.75;;;16.80;95.90;;;;;;5133339;28;20045;-86
2023/05/19 12:02:12;;;;;;;6.50;3.08;;;16.90;96.20;;;;;;5132678;27;20106;-86
2023/05/19 12:04:38;;;;;;;6.93;2.90;;;16.90;97.10;;;;;;5132129;27;20064;-89
2023/05/19 12:07:04;;;;;;;10.00;3.83;;;17.00;97.00;;;;;;5134037;28;20398;-87
2023/05/19 12:09:29;;;;;;;11.27;3.58;;;17.00;97.00;;;;;;5133566;28;20023;-88
2023/05/19 12:11:55;;;;;;;10.98;2.78;;;17.00;97.30;;;;;;5133435;28;20037;-87
2023/05/19 12:14:21;;;;;;;6.20;3.05;;;16.90;96.30;;;;;;5132774;28;20045;-88
2023/05/19 12:16:46;;;;;;;5.75;2.65;;;17.00;96.20;;;;;;5131667;28;20518;-87
2023/05/19 12:19:12;;;;;;;5.22;2.72;;;17.00;97.00;;;;;;5132815;28;20043;-87
2023/05/19 12:21:38;;;;;;;9.27;3.17;;;17.10;96.40;;;;;;5035368;28;20477;-87
2023/05/19 12:24:04;;;;;;;7.30;2.83;;;17.40;96.80;;;;;;5029305;28;20037;-87
2023/05/19 12:26:30;;;;;;;3.17;2.67;;;17.20;97.50;;;;;;5031791;28;20540;-87
2023/05/19 12:28:57;;;;;;;6.68;2.47;;;17.30;97.50;;;;;;5031586;28;20104;-85
2023/05/19 12:31:22;;;;;;;6.00;2.80;;;17.40;97.80;;;;;;5031309;28;20033;-88
2023/05/19 12:33:51;;;;;;;7.03;3.03;;;17.30;97.90;;;;;;5031668;28;20018;-88
2023/05/19 12:36:17;;;;;;;8.75;3.10;;;17.60;97.90;;;;;;5031853;28;20037;-87
2023/05/19 12:38:44;;;;;;;6.55;3.15;;;17.50;98.00;;;;;;5030644;28;20025;-87
2023/05/19 12:41:13;;;;;;;9.30;3.55;;;17.50;97.10;;;;;;5031861;28;20033;-87
2023/05/19 12:43:39;;;;;;;6.55;3.13;;;17.50;96.60;;;;;;5031129;28;20488;-86
2023/05/19 12:46:12;;;;;;;7.45;3.17;;;17.50;96.60;;;;;;5030811;28;20129;-85